sensor_id;sensor_type;location;lat;lon;timestamp;pressure;altitude;pressure_sealevel;temperature
74750;BMP280;63269;53.330;-6.288;2023-08-21T00:00:18;101633.00;;;24.24
74750;BMP280;63269;53.330;-6.288;2023-08-21T00:02:43;101637.59;;;24.23
74750;BMP280;63269;53.330;-6.288;2023-08-21T00:05:09;101630.72;;;24.22
74750;BMP280;63269;53.330;-6.288;2023-08-21T00:07:34;101641.06;;;24.24
74750;BMP280;63269;53.330;-6.288;2023-08-21T00:10:00;101643.41;;;24.22
74750;BMP280;63269;53.330;-6.288;2023-08-21T00:12:25;101648.75;;;24.22
74750;BMP280;63269;53.330;-6.288;2023-08-21T00:14:50;101648.75;;;24.22
74750;BMP280;63269;53.330;-6.288;2023-08-21T00:17:16;101638.03;;;24.22
74750;BMP280;63269;53.330;-6.288;2023-08-21T00:19:41;101637.28;;;24.21
74750;BMP280;63269;53.330;-6.288;2023-08-21T00:22:06;101637.28;;;24.21
74750;BMP280;63269;53.330;-6.288;2023-08-21T00:24:32;101630.44;;;24.20
74750;BMP280;63269;53.330;-6.288;2023-08-21T00:26:58;101627.75;;;24.20
74750;BMP280;63269;53.330;-6.288;2023-08-21T00:29:23;101622.81;;;24.19
74750;BMP280;63269;53.330;-6.288;2023-08-21T00:31:49;101622.81;;;24.19
74750;BMP280;63269;53.330;-6.288;2023-08-21T00:34:14;101632.81;;;24.18
74750;BMP280;63269;53.330;-6.288;2023-08-21T00:36:39;101641.59;;;24.19
74750;BMP280;63269;53.330;-6.288;2023-08-21T00:39:05;101641.59;;;24.19
74750;BMP280;63269;53.330;-6.288;2023-08-21T00:41:31;101635.94;;;24.17
74750;BMP280;63269;53.330;-6.288;2023-08-21T00:43:59;101635.94;;;24.17
74750;BMP280;63269;53.330;-6.288;2023-08-21T00:46:24;101635.94;;;24.17
74750;BMP280;63269;53.330;-6.288;2023-08-21T00:48:50;101621.78;;;24.16
74750;BMP280;63269;53.330;-6.288;2023-08-21T00:51:16;101621.78;;;24.16
74750;BMP280;63269;53.330;-6.288;2023-08-21T00:53:42;101620.25;;;24.15
74750;BMP280;63269;53.330;-6.288;2023-08-21T00:56:08;101629.06;;;24.16
74750;BMP280;63269;53.330;-6.288;2023-08-21T00:58:34;101628.31;;;24.15
74750;BMP280;63269;53.330;-6.288;2023-08-21T01:01:00;101624.88;;;24.15
74750;BMP280;63269;53.330;-6.288;2023-08-21T01:03:25;101626.81;;;24.14
74750;BMP280;63269;53.330;-6.288;2023-08-21T01:05:51;101626.03;;;24.14
74750;BMP280;63269;53.330;-6.288;2023-08-21T01:10:47;101630.97;;;24.15
74750;BMP280;63269;53.330;-6.288;2023-08-21T01:13:24;101626.81;;;24.14
74750;BMP280;63269;53.330;-6.288;2023-08-21T01:15:54;101621.91;;;24.13
74750;BMP280;63269;53.330;-6.288;2023-08-21T01:18:22;101621.91;;;24.13
74750;BMP280;63269;53.330;-6.288;2023-08-21T01:20:47;101621.91;;;24.13
74750;BMP280;63269;53.330;-6.288;2023-08-21T01:23:35;101625.03;;;24.11
74750;BMP280;63269;53.330;-6.288;2023-08-21T01:26:01;101622.34;;;24.11
74750;BMP280;63269;53.330;-6.288;2023-08-21T01:28:27;101622.34;;;24.11
74750;BMP280;63269;53.330;-6.288;2023-08-21T01:31:18;101626.50;;;24.12
74750;BMP280;63269;53.330;-6.288;2023-08-21T01:33:46;101631.13;;;24.11
74750;BMP280;63269;53.330;-6.288;2023-08-21T01:36:14;101631.13;;;24.11
74750;BMP280;63269;53.330;-6.288;2023-08-21T01:38:40;101618.16;;;24.10
74750;BMP280;63269;53.330;-6.288;2023-08-21T01:41:06;101618.16;;;24.10
74750;BMP280;63269;53.330;-6.288;2023-08-21T01:43:31;101608.63;;;24.09
74750;BMP280;63269;53.330;-6.288;2023-08-21T01:45:56;101616.97;;;24.11
74750;BMP280;63269;53.330;-6.288;2023-08-21T01:48:22;101616.97;;;24.11
74750;BMP280;63269;53.330;-6.288;2023-08-21T01:50:48;101605.19;;;24.08
74750;BMP280;63269;53.330;-6.288;2023-08-21T01:53:13;101605.19;;;24.08
74750;BMP280;63269;53.330;-6.288;2023-08-21T01:55:38;101605.19;;;24.08
74750;BMP280;63269;53.330;-6.288;2023-08-21T01:58:04;101607.09;;;24.08
74750;BMP280;63269;53.330;-6.288;2023-08-21T02:00:29;101601.00;;;24.07
74750;BMP280;63269;53.330;-6.288;2023-08-21T02:02:55;101598.31;;;24.07
74750;BMP280;63269;53.330;-6.288;2023-08-21T02:05:20;101601.00;;;24.07
74750;BMP280;63269;53.330;-6.288;2023-08-21T02:07:45;101605.63;;;24.07
74750;BMP280;63269;53.330;-6.288;2023-08-21T02:10:11;101605.63;;;24.07
74750;BMP280;63269;53.330;-6.288;2023-08-21T02:12:37;101602.16;;;24.06
74750;BMP280;63269;53.330;-6.288;2023-08-21T02:15:02;101602.16;;;24.06
74750;BMP280;63269;53.330;-6.288;2023-08-21T02:17:27;101593.84;;;24.04
74750;BMP280;63269;53.330;-6.288;2023-08-21T02:19:53;101588.03;;;24.06
74750;BMP280;63269;53.330;-6.288;2023-08-21T02:22:18;101588.03;;;24.06
74750;BMP280;63269;53.330;-6.288;2023-08-21T02:24:44;101588.47;;;24.04
74750;BMP280;63269;53.330;-6.288;2023-08-21T02:27:09;101585.03;;;24.04
74750;BMP280;63269;53.330;-6.288;2023-08-21T02:29:34;101584.28;;;24.03
74750;BMP280;63269;53.330;-6.288;2023-08-21T02:32:00;101586.97;;;24.03
74750;BMP280;63269;53.330;-6.288;2023-08-21T02:34:25;101578.94;;;24.03
74750;BMP280;63269;53.330;-6.288;2023-08-21T02:36:52;101585.03;;;24.04
74750;BMP280;63269;53.330;-6.288;2023-08-21T02:39:17;101585.81;;;24.04
74750;BMP280;63269;53.330;-6.288;2023-08-21T02:41:43;101585.81;;;24.04
74750;BMP280;63269;53.330;-6.288;2023-08-21T02:44:08;101585.47;;;24.02
74750;BMP280;63269;53.330;-6.288;2023-08-21T02:46:33;101594.25;;;24.03
74750;BMP280;63269;53.330;-6.288;2023-08-21T02:49:00;101580.09;;;24.02
74750;BMP280;63269;53.330;-6.288;2023-08-21T02:51:25;101586.97;;;24.03
74750;BMP280;63269;53.330;-6.288;2023-08-21T02:53:51;101586.97;;;24.03
74750;BMP280;63269;53.330;-6.288;2023-08-21T02:56:16;101584.28;;;24.03
74750;BMP280;63269;53.330;-6.288;2023-08-21T02:58:42;101593.50;;;24.02
74750;BMP280;63269;53.330;-6.288;2023-08-21T03:01:07;101586.97;;;24.03
74750;BMP280;63269;53.330;-6.288;2023-08-21T03:03:33;101586.97;;;24.03
74750;BMP280;63269;53.330;-6.288;2023-08-21T03:06:00;101580.09;;;24.02
74750;BMP280;63269;53.330;-6.288;2023-08-21T03:08:26;101578.94;;;24.03
74750;BMP280;63269;53.330;-6.288;2023-08-21T03:10:51;101578.94;;;24.03
74750;BMP280;63269;53.330;-6.288;2023-08-21T03:13:17;101573.28;;;24.01
74750;BMP280;63269;53.330;-6.288;2023-08-21T03:15:42;101572.06;;;24.02
74750;BMP280;63269;53.330;-6.288;2023-08-21T03:18:08;101565.53;;;24.03
74750;BMP280;63269;53.330;-6.288;2023-08-21T03:20:33;101567.47;;;24.03
74750;BMP280;63269;53.330;-6.288;2023-08-21T03:22:59;101567.47;;;24.03
74750;BMP280;63269;53.330;-6.288;2023-08-21T03:25:25;101562.84;;;24.03
74750;BMP280;63269;53.330;-6.288;2023-08-21T03:27:50;101562.84;;;24.03
74750;BMP280;63269;53.330;-6.288;2023-08-21T03:30:16;101555.53;;;24.04
74750;BMP280;63269;53.330;-6.288;2023-08-21T03:32:41;101549.44;;;24.03
74750;BMP280;63269;53.330;-6.288;2023-08-21T03:35:07;101553.28;;;24.02
74750;BMP280;63269;53.330;-6.288;2023-08-21T03:37:32;101546.47;;;24.01
74750;BMP280;63269;53.330;-6.288;2023-08-21T03:39:58;101543.34;;;24.03
74750;BMP280;63269;53.330;-6.288;2023-08-21T03:42:23;101543.34;;;24.03
74750;BMP280;63269;53.330;-6.288;2023-08-21T03:44:49;101539.59;;;24.00
74750;BMP280;63269;53.330;-6.288;2023-08-21T03:47:16;101537.66;;;24.01
74750;BMP280;63269;53.330;-6.288;2023-08-21T03:49:41;101552.56;;;24.02
74750;BMP280;63269;53.330;-6.288;2023-08-21T03:52:07;101552.56;;;24.02
74750;BMP280;63269;53.330;-6.288;2023-08-21T03:54:32;101551.06;;;24.01
74750;BMP280;63269;53.330;-6.288;2023-08-21T03:56:58;101551.84;;;24.01
74750;BMP280;63269;53.330;-6.288;2023-08-21T03:59:23;101551.84;;;24.01
74750;BMP280;63269;53.330;-6.288;2023-08-21T04:01:52;101553.00;;;24.00
74750;BMP280;63269;53.330;-6.288;2023-08-21T04:04:17;101559.09;;;24.01
74750;BMP280;63269;53.330;-6.288;2023-08-21T04:06:43;101553.75;;;24.01
74750;BMP280;63269;53.330;-6.288;2023-08-21T04:09:08;101549.16;;;24.01
74750;BMP280;63269;53.330;-6.288;2023-08-21T04:11:34;101546.91;;;24.00
74750;BMP280;63269;53.330;-6.288;2023-08-21T04:14:01;101546.91;;;24.00
74750;BMP280;63269;53.330;-6.288;2023-08-21T04:16:26;101545.72;;;24.01
74750;BMP280;63269;53.330;-6.288;2023-08-21T04:18:53;101541.84;;;24.02
74750;BMP280;63269;53.330;-6.288;2023-08-21T04:21:18;101541.84;;;24.02
74750;BMP280;63269;53.330;-6.288;2023-08-21T04:23:44;101538.09;;;23.99
74750;BMP280;63269;53.330;-6.288;2023-08-21T04:26:10;101538.88;;;24.00
74750;BMP280;63269;53.330;-6.288;2023-08-21T04:28:37;101546.47;;;24.01
74750;BMP280;63269;53.330;-6.288;2023-08-21T04:31:06;101546.47;;;24.01
74750;BMP280;63269;53.330;-6.288;2023-08-21T04:33:33;101548.38;;;24.01
74750;BMP280;63269;53.330;-6.288;2023-08-21T04:35:58;101548.81;;;23.99
74750;BMP280;63269;53.330;-6.288;2023-08-21T04:38:24;101552.25;;;24.00
74750;BMP280;63269;53.330;-6.288;2023-08-21T04:40:50;101548.38;;;24.01
74750;BMP280;63269;53.330;-6.288;2023-08-21T04:43:15;101548.38;;;24.01
74750;BMP280;63269;53.330;-6.288;2023-08-21T04:45:48;101554.53;;;24.01
74750;BMP280;63269;53.330;-6.288;2023-08-21T04:48:14;101554.53;;;24.01
74750;BMP280;63269;53.330;-6.288;2023-08-21T04:50:40;101545.41;;;23.99
74750;BMP280;63269;53.330;-6.288;2023-08-21T04:53:05;101536.63;;;23.98
74750;BMP280;63269;53.330;-6.288;2023-08-21T04:55:31;101533.94;;;23.98
74750;BMP280;63269;53.330;-6.288;2023-08-21T04:57:56;101533.94;;;23.98
74750;BMP280;63269;53.330;-6.288;2023-08-21T05:00:22;101539.28;;;23.98
74750;BMP280;63269;53.330;-6.288;2023-08-21T05:02:47;101537.81;;;23.97
74750;BMP280;63269;53.330;-6.288;2023-08-21T05:05:12;101537.03;;;23.97
74750;BMP280;63269;53.330;-6.288;2023-08-21T05:07:38;101532.44;;;23.97
74750;BMP280;63269;53.330;-6.288;2023-08-21T05:10:04;101532.44;;;23.97
74750;BMP280;63269;53.330;-6.288;2023-08-21T05:12:29;101523.34;;;23.95
74750;BMP280;63269;53.330;-6.288;2023-08-21T05:14:55;101522.91;;;23.96
74750;BMP280;63269;53.330;-6.288;2023-08-21T05:17:20;101522.91;;;23.96
74750;BMP280;63269;53.330;-6.288;2023-08-21T05:19:46;101526.75;;;23.95
74750;BMP280;63269;53.330;-6.288;2023-08-21T05:22:11;101521.38;;;23.95
74750;BMP280;63269;53.330;-6.288;2023-08-21T05:24:37;101521.38;;;23.95
74750;BMP280;63269;53.330;-6.288;2023-08-21T05:27:03;101526.03;;;23.95
74750;BMP280;63269;53.330;-6.288;2023-08-21T05:29:29;101526.03;;;23.95
74750;BMP280;63269;53.330;-6.288;2023-08-21T05:31:55;101522.63;;;23.94
74750;BMP280;63269;53.330;-6.288;2023-08-21T05:34:20;101522.63;;;23.94
74750;BMP280;63269;53.330;-6.288;2023-08-21T05:36:46;101514.56;;;23.94
74750;BMP280;63269;53.330;-6.288;2023-08-21T05:39:11;101513.81;;;23.94
74750;BMP280;63269;53.330;-6.288;2023-08-21T05:41:36;101513.81;;;23.94
74750;BMP280;63269;53.330;-6.288;2023-08-21T05:44:02;101516.47;;;23.94
74750;BMP280;63269;53.330;-6.288;2023-08-21T05:46:28;101516.47;;;23.94
74750;BMP280;63269;53.330;-6.288;2023-08-21T05:48:53;101514.97;;;23.93
74750;BMP280;63269;53.330;-6.288;2023-08-21T05:51:18;101508.88;;;23.92
74750;BMP280;63269;53.330;-6.288;2023-08-21T05:53:44;101508.88;;;23.92
74750;BMP280;63269;53.330;-6.288;2023-08-21T05:56:09;101517.66;;;23.93
74750;BMP280;63269;53.330;-6.288;2023-08-21T05:58:35;101517.66;;;23.93
74750;BMP280;63269;53.330;-6.288;2023-08-21T06:01:00;101510.06;;;23.91
74750;BMP280;63269;53.330;-6.288;2023-08-21T06:03:26;101516.91;;;23.92
74750;BMP280;63269;53.330;-6.288;2023-08-21T06:05:51;101516.91;;;23.92
74750;BMP280;63269;53.330;-6.288;2023-08-21T06:08:17;101528.09;;;23.90
74750;BMP280;63269;53.330;-6.288;2023-08-21T06:10:43;101528.09;;;23.90
74750;BMP280;63269;53.330;-6.288;2023-08-21T06:13:08;101524.66;;;23.90
74750;BMP280;63269;53.330;-6.288;2023-08-21T06:15:34;101528.81;;;23.91
74750;BMP280;63269;53.330;-6.288;2023-08-21T06:17:59;101528.81;;;23.91
74750;BMP280;63269;53.330;-6.288;2023-08-21T06:20:25;101523.91;;;23.89
74750;BMP280;63269;53.330;-6.288;2023-08-21T06:22:51;101528.50;;;23.89
74750;BMP280;63269;53.330;-6.288;2023-08-21T06:25:16;101532.72;;;23.90
74750;BMP280;63269;53.330;-6.288;2023-08-21T06:27:44;101539.97;;;23.89
74750;BMP280;63269;53.330;-6.288;2023-08-21T06:30:10;101535.81;;;23.88
74750;BMP280;63269;53.330;-6.288;2023-08-21T06:32:35;101533.44;;;23.90
74750;BMP280;63269;53.330;-6.288;2023-08-21T06:35:00;101529.25;;;23.89
74750;BMP280;63269;53.330;-6.288;2023-08-21T06:37:26;101537.28;;;23.89
74750;BMP280;63269;53.330;-6.288;2023-08-21T06:39:52;101537.28;;;23.89
74750;BMP280;63269;53.330;-6.288;2023-08-21T06:42:17;101534.63;;;23.89
74750;BMP280;63269;53.330;-6.288;2023-08-21T06:44:43;101539.97;;;23.89
74750;BMP280;63269;53.330;-6.288;2023-08-21T06:47:08;101541.16;;;23.88
74750;BMP280;63269;53.330;-6.288;2023-08-21T06:49:33;101547.28;;;23.89
74750;BMP280;63269;53.330;-6.288;2023-08-21T06:51:59;101547.69;;;23.87
74750;BMP280;63269;53.330;-6.288;2023-08-21T06:54:25;101554.56;;;23.88
74750;BMP280;63269;53.330;-6.288;2023-08-21T06:56:50;101545.34;;;23.89
74750;BMP280;63269;53.330;-6.288;2023-08-21T06:59:15;101564.09;;;23.89
74750;BMP280;63269;53.330;-6.288;2023-08-21T07:01:41;101560.66;;;23.89
74750;BMP280;63269;53.330;-6.288;2023-08-21T07:04:06;101568.72;;;23.89
74750;BMP280;63269;53.330;-6.288;2023-08-21T07:06:32;101563.34;;;23.89
74750;BMP280;63269;53.330;-6.288;2023-08-21T07:08:57;101567.19;;;23.88
74750;BMP280;63269;53.330;-6.288;2023-08-21T07:11:23;101561.09;;;23.87
74750;BMP280;63269;53.330;-6.288;2023-08-21T07:13:49;101567.97;;;23.88
74750;BMP280;63269;53.330;-6.288;2023-08-21T07:16:14;101566.78;;;23.89
74750;BMP280;63269;53.330;-6.288;2023-08-21T07:18:39;101576.00;;;23.88
74750;BMP280;63269;53.330;-6.288;2023-08-21T07:21:05;101566.47;;;23.87
74750;BMP280;63269;53.330;-6.288;2023-08-21T07:23:31;101570.66;;;23.88
74750;BMP280;63269;53.330;-6.288;2023-08-21T07:25:58;101564.09;;;23.89
74750;BMP280;63269;53.330;-6.288;2023-08-21T07:28:23;101565.28;;;23.88
74750;BMP280;63269;53.330;-6.288;2023-08-21T07:30:54;101572.13;;;23.89
74750;BMP280;63269;53.330;-6.288;2023-08-21T07:33:20;101571.81;;;23.87
74750;BMP280;63269;53.330;-6.288;2023-08-21T07:35:46;101570.66;;;23.88
74750;BMP280;63269;53.330;-6.288;2023-08-21T07:38:11;101578.69;;;23.88
74750;BMP280;63269;53.330;-6.288;2023-08-21T07:40:36;101570.22;;;23.90
74750;BMP280;63269;53.330;-6.288;2023-08-21T07:43:02;101566.03;;;23.89
74750;BMP280;63269;53.330;-6.288;2023-08-21T07:45:27;101581.38;;;23.88
74750;BMP280;63269;53.330;-6.288;2023-08-21T07:47:53;101574.06;;;23.89
74750;BMP280;63269;53.330;-6.288;2023-08-21T07:50:18;101571.38;;;23.89
74750;BMP280;63269;53.330;-6.288;2023-08-21T07:52:44;101572.13;;;23.89
74750;BMP280;63269;53.330;-6.288;2023-08-21T07:55:09;101582.09;;;23.89
74750;BMP280;63269;53.330;-6.288;2023-08-21T07:57:35;101578.69;;;23.88
74750;BMP280;63269;53.330;-6.288;2023-08-21T08:00:00;101576.00;;;23.88
74750;BMP280;63269;53.330;-6.288;2023-08-21T08:02:26;101572.56;;;23.88
74750;BMP280;63269;53.330;-6.288;2023-08-21T08:04:51;101576.00;;;23.88
74750;BMP280;63269;53.330;-6.288;2023-08-21T08:07:16;101589.41;;;23.88
74750;BMP280;63269;53.330;-6.288;2023-08-21T08:09:42;101572.56;;;23.88
74750;BMP280;63269;53.330;-6.288;2023-08-21T08:12:07;101580.59;;;23.88
74750;BMP280;63269;53.330;-6.288;2023-08-21T08:14:34;101580.59;;;23.88
74750;BMP280;63269;53.330;-6.288;2023-08-21T08:17:00;101579.84;;;23.87
74750;BMP280;63269;53.330;-6.288;2023-08-21T08:19:25;101584.78;;;23.89
74750;BMP280;63269;53.330;-6.288;2023-08-21T08:21:51;101584.78;;;23.89
74750;BMP280;63269;53.330;-6.288;2023-08-21T08:24:16;101587.78;;;23.91
74750;BMP280;63269;53.330;-6.288;2023-08-21T08:26:42;101572.44;;;23.92
74750;BMP280;63269;53.330;-6.288;2023-08-21T08:29:08;101581.97;;;23.93
74750;BMP280;63269;53.330;-6.288;2023-08-21T08:31:34;101578.13;;;23.94
74750;BMP280;63269;53.330;-6.288;2023-08-21T08:34:00;101578.13;;;23.94
74750;BMP280;63269;53.330;-6.288;2023-08-21T08:36:25;101574.38;;;23.91
74750;BMP280;63269;53.330;-6.288;2023-08-21T08:38:50;101569.63;;;23.95
74750;BMP280;63269;53.330;-6.288;2023-08-21T08:41:26;101569.19;;;23.97
74750;BMP280;63269;53.330;-6.288;2023-08-21T08:43:56;101577.25;;;23.97
74750;BMP280;63269;53.330;-6.288;2023-08-21T08:46:23;101577.25;;;23.97
74750;BMP280;63269;53.330;-6.288;2023-08-21T08:48:49;101578.44;;;23.96
74750;BMP280;63269;53.330;-6.288;2023-08-21T08:51:14;101578.44;;;23.96
74750;BMP280;63269;53.330;-6.288;2023-08-21T08:53:42;101565.03;;;23.96
74750;BMP280;63269;53.330;-6.288;2023-08-21T08:56:08;101570.41;;;23.96
74750;BMP280;63269;53.330;-6.288;2023-08-21T08:58:33;101575.34;;;23.97
74750;BMP280;63269;53.330;-6.288;2023-08-21T09:00:59;101572.66;;;23.97
74750;BMP280;63269;53.330;-6.288;2023-08-21T09:03:24;101576.06;;;23.98
74750;BMP280;63269;53.330;-6.288;2023-08-21T09:05:50;101561.47;;;23.99
74750;BMP280;63269;53.330;-6.288;2023-08-21T09:08:15;101563.41;;;23.98
74750;BMP280;63269;53.330;-6.288;2023-08-21T09:10:42;101563.41;;;23.98
74750;BMP280;63269;53.330;-6.288;2023-08-21T09:13:12;101564.59;;;23.97
74750;BMP280;63269;53.330;-6.288;2023-08-21T09:15:38;101554.19;;;23.99
74750;BMP280;63269;53.330;-6.288;2023-08-21T09:18:04;101554.19;;;23.99
74750;BMP280;63269;53.330;-6.288;2023-08-21T09:20:39;101555.38;;;23.98
74750;BMP280;63269;53.330;-6.288;2023-08-21T09:23:05;101554.94;;;24.00
74750;BMP280;63269;53.330;-6.288;2023-08-21T09:25:35;101556.84;;;23.99
74750;BMP280;63269;53.330;-6.288;2023-08-21T09:28:04;101558.38;;;24.00
74750;BMP280;63269;53.330;-6.288;2023-08-21T09:30:52;101558.38;;;24.00
74750;BMP280;63269;53.330;-6.288;2023-08-21T09:33:22;101564.16;;;23.99
74750;BMP280;63269;53.330;-6.288;2023-08-21T09:35:49;101548.81;;;23.99
74750;BMP280;63269;53.330;-6.288;2023-08-21T09:38:16;101541.53;;;24.00
74750;BMP280;63269;53.330;-6.288;2023-08-21T09:40:42;101535.41;;;23.99
74750;BMP280;63269;53.330;-6.288;2023-08-21T09:43:09;101535.41;;;23.99
74750;BMP280;63269;53.330;-6.288;2023-08-21T09:45:36;101547.66;;;24.00
74750;BMP280;63269;53.330;-6.288;2023-08-21T09:48:03;101547.66;;;24.00
74750;BMP280;63269;53.330;-6.288;2023-08-21T09:50:29;101552.69;;;23.98
74750;BMP280;63269;53.330;-6.288;2023-08-21T09:52:56;101553.00;;;24.00
74750;BMP280;63269;53.330;-6.288;2023-08-21T09:55:22;101551.50;;;23.99
74750;BMP280;63269;53.330;-6.288;2023-08-21T09:57:48;101561.34;;;24.02
74750;BMP280;63269;53.330;-6.288;2023-08-21T10:00:14;101556.44;;;24.01
74750;BMP280;63269;53.330;-6.288;2023-08-21T10:02:51;101556.44;;;24.01
74750;BMP280;63269;53.330;-6.288;2023-08-21T10:05:17;101556.84;;;23.99
74750;BMP280;63269;53.330;-6.288;2023-08-21T10:07:44;101558.38;;;24.00
74750;BMP280;63269;53.330;-6.288;2023-08-21T10:10:11;101549.16;;;24.01
74750;BMP280;63269;53.330;-6.288;2023-08-21T10:12:37;101549.16;;;24.01
74750;BMP280;63269;53.330;-6.288;2023-08-21T10:15:03;101545.41;;;23.99
74750;BMP280;63269;53.330;-6.288;2023-08-21T10:17:30;101541.53;;;24.00
74750;BMP280;63269;53.330;-6.288;2023-08-21T10:20:02;101537.22;;;24.02
74750;BMP280;63269;53.330;-6.288;2023-08-21T10:25:17;101541.84;;;24.02
74750;BMP280;63269;53.330;-6.288;2023-08-21T10:27:49;101533.50;;;24.00
74750;BMP280;63269;53.330;-6.288;2023-08-21T10:30:19;101543.47;;;23.99
74750;BMP280;63269;53.330;-6.288;2023-08-21T10:32:49;101541.53;;;24.00
74750;BMP280;63269;53.330;-6.288;2023-08-21T10:35:18;101541.53;;;24.00
74750;BMP280;63269;53.330;-6.288;2023-08-21T10:38:14;101544.97;;;24.00
74750;BMP280;63269;53.330;-6.288;2023-08-21T10:41:07;101543.47;;;23.99
74750;BMP280;63269;53.330;-6.288;2023-08-21T10:43:40;101543.47;;;23.99
74750;BMP280;63269;53.330;-6.288;2023-08-21T10:46:07;101530.50;;;23.98
74750;BMP280;63269;53.330;-6.288;2023-08-21T10:48:33;101538.09;;;23.99
74750;BMP280;63269;53.330;-6.288;2023-08-21T10:51:03;101538.09;;;23.99
74750;BMP280;63269;53.330;-6.288;2023-08-21T10:53:30;101528.56;;;23.98
74750;BMP280;63269;53.330;-6.288;2023-08-21T10:55:56;101522.47;;;23.98
74750;BMP280;63269;53.330;-6.288;2023-08-21T10:58:22;101524.69;;;23.99
74750;BMP280;63269;53.330;-6.288;2023-08-21T11:00:56;101524.69;;;23.99
74750;BMP280;63269;53.330;-6.288;2023-08-21T11:03:21;101518.91;;;24.01
74750;BMP280;63269;53.330;-6.288;2023-08-21T11:06:03;101515.91;;;23.99
74750;BMP280;63269;53.330;-6.288;2023-08-21T11:08:29;101503.25;;;23.99
74750;BMP280;63269;53.330;-6.288;2023-08-21T11:10:54;101503.25;;;23.99
74750;BMP280;63269;53.330;-6.288;2023-08-21T11:13:23;101503.25;;;23.99
74750;BMP280;63269;53.330;-6.288;2023-08-21T11:15:48;101498.34;;;23.98
74750;BMP280;63269;53.330;-6.288;2023-08-21T11:18:14;101490.63;;;24.00
74750;BMP280;63269;53.330;-6.288;2023-08-21T11:20:39;101504.03;;;24.00
74750;BMP280;63269;53.330;-6.288;2023-08-21T11:23:06;101504.03;;;24.00
74750;BMP280;63269;53.330;-6.288;2023-08-21T11:25:38;101505.19;;;23.99
74750;BMP280;63269;53.330;-6.288;2023-08-21T11:28:05;101489.13;;;23.99
74750;BMP280;63269;53.330;-6.288;2023-08-21T11:30:31;101482.59;;;24.00
74750;BMP280;63269;53.330;-6.288;2023-08-21T11:33:08;101487.53;;;24.01
74750;BMP280;63269;53.330;-6.288;2023-08-21T11:35:34;101487.53;;;24.01
74750;BMP280;63269;53.330;-6.288;2023-08-21T11:38:00;101481.38;;;24.01
74750;BMP280;63269;53.330;-6.288;2023-08-21T11:40:25;101481.38;;;24.01
74750;BMP280;63269;53.330;-6.288;2023-08-21T11:42:51;101476.47;;;23.99
74750;BMP280;63269;53.330;-6.288;2023-08-21T11:45:20;101479.13;;;23.99
74750;BMP280;63269;53.330;-6.288;2023-08-21T11:47:46;101478.41;;;23.99
74750;BMP280;63269;53.330;-6.288;2023-08-21T11:50:11;101469.19;;;24.00
74750;BMP280;63269;53.330;-6.288;2023-08-21T11:52:40;101469.19;;;24.00
74750;BMP280;63269;53.330;-6.288;2023-08-21T11:55:08;101481.06;;;23.99
74750;BMP280;63269;53.330;-6.288;2023-08-21T11:57:46;101473.03;;;23.99
74750;BMP280;63269;53.330;-6.288;2023-08-21T12:00:11;101488.69;;;24.00
74750;BMP280;63269;53.330;-6.288;2023-08-21T12:02:37;101473.78;;;23.99
74750;BMP280;63269;53.330;-6.288;2023-08-21T12:05:13;101473.78;;;23.99
74750;BMP280;63269;53.330;-6.288;2023-08-21T12:07:38;101471.09;;;23.99
74750;BMP280;63269;53.330;-6.288;2023-08-21T12:10:04;101472.59;;;24.00
74750;BMP280;63269;53.330;-6.288;2023-08-21T12:12:29;101472.59;;;24.00
74750;BMP280;63269;53.330;-6.288;2023-08-21T12:14:55;101463.81;;;24.00
74750;BMP280;63269;53.330;-6.288;2023-08-21T12:17:20;101457.69;;;23.99
74750;BMP280;63269;53.330;-6.288;2023-08-21T12:19:46;101453.09;;;24.00
74750;BMP280;63269;53.330;-6.288;2023-08-21T12:22:11;101450.44;;;24.00
74750;BMP280;63269;53.330;-6.288;2023-08-21T12:24:37;101457.69;;;23.99
74750;BMP280;63269;53.330;-6.288;2023-08-21T12:27:04;101462.31;;;23.99
74750;BMP280;63269;53.330;-6.288;2023-08-21T12:29:29;101438.94;;;23.99
74750;BMP280;63269;53.330;-6.288;2023-08-21T12:31:55;101446.97;;;23.99
74750;BMP280;63269;53.330;-6.288;2023-08-21T12:34:20;101439.28;;;24.01
74750;BMP280;63269;53.330;-6.288;2023-08-21T12:36:46;101447.75;;;24.00
74750;BMP280;63269;53.330;-6.288;2023-08-21T12:39:11;101447.75;;;24.00
74750;BMP280;63269;53.330;-6.288;2023-08-21T12:41:37;101442.38;;;24.00
74750;BMP280;63269;53.330;-6.288;2023-08-21T12:44:03;101438.50;;;24.01
74750;BMP280;63269;53.330;-6.288;2023-08-21T12:46:29;101438.50;;;24.01
74750;BMP280;63269;53.330;-6.288;2023-08-21T12:48:58;101432.84;;;23.99
74750;BMP280;63269;53.330;-6.288;2023-08-21T12:51:26;101436.59;;;24.01
74750;BMP280;63269;53.330;-6.288;2023-08-21T12:53:52;101435.09;;;24.00
74750;BMP280;63269;53.330;-6.288;2023-08-21T12:56:17;101435.09;;;24.00
74750;BMP280;63269;53.330;-6.288;2023-08-21T12:58:43;101435.50;;;23.99
74750;BMP280;63269;53.330;-6.288;2023-08-21T13:01:09;101437.34;;;24.02
74750;BMP280;63269;53.330;-6.288;2023-08-21T13:03:34;101433.91;;;24.01
74750;BMP280;63269;53.330;-6.288;2023-08-21T13:06:00;101433.91;;;24.01
74750;BMP280;63269;53.330;-6.288;2023-08-21T13:08:25;101431.25;;;24.01
74750;BMP280;63269;53.330;-6.288;2023-08-21T13:10:52;101431.25;;;24.01
74750;BMP280;63269;53.330;-6.288;2023-08-21T13:13:17;101436.25;;;23.99
74750;BMP280;63269;53.330;-6.288;2023-08-21T13:15:43;101435.09;;;24.00
74750;BMP280;63269;53.330;-6.288;2023-08-21T13:18:10;101427.03;;;24.00
74750;BMP280;63269;53.330;-6.288;2023-08-21T13:20:36;101421.25;;;24.02
74750;BMP280;63269;53.330;-6.288;2023-08-21T13:23:02;101421.25;;;24.02
74750;BMP280;63269;53.330;-6.288;2023-08-21T13:25:27;101423.19;;;24.01
74750;BMP280;63269;53.330;-6.288;2023-08-21T13:27:54;101425.41;;;24.03
74750;BMP280;63269;53.330;-6.288;2023-08-21T13:30:19;101425.41;;;24.03
74750;BMP280;63269;53.330;-6.288;2023-08-21T13:32:46;101420.94;;;24.00
74750;BMP280;63269;53.330;-6.288;2023-08-21T13:35:11;101417.84;;;24.01
74750;BMP280;63269;53.330;-6.288;2023-08-21T13:37:37;101422.75;;;24.03
74750;BMP280;63269;53.330;-6.288;2023-08-21T13:40:04;101420.78;;;24.03
74750;BMP280;63269;53.330;-6.288;2023-08-21T13:42:39;101420.78;;;24.03
74750;BMP280;63269;53.330;-6.288;2023-08-21T13:45:10;101418.13;;;24.03